Time;durP1;ratioP1;P1;durP2;ratioP2;P2;SDS_P1;SDS_P2;PMS_P1;PMS_P2;Temp;Humidity;BMP_temperature;BMP_pressure;BME280_temperature;BME280_humidity;BME280_pressure;Samples;Min_cycle;Max_cycle;Signal;HPM_P1;HPM_P2
2022/05/25 00:00:15;;;;;;;0.40;0.27;;;;;;;12.68;100.00;99962.50;4995595;28;20469;-50
2022/05/25 00:02:41;;;;;;;0.30;0.20;;;;;;;12.81;100.00;99965.50;4983159;28;20458;-50
2022/05/25 00:05:10;;;;;;;0.40;0.20;;;;;;;12.77;100.00;99972.78;4982771;28;20454;-50
2022/05/25 00:07:37;;;;;;;0.40;0.20;;;;;;;12.99;100.00;99965.56;4988687;28;20457;-51
2022/05/25 00:10:04;;;;;;;0.30;0.20;;;;;;;12.92;100.00;99964.13;4989229;28;20520;-50
2022/05/25 00:12:31;;;;;;;0.30;0.20;;;;;;;12.98;100.00;99960.31;4983779;28;20453;-50
2022/05/25 00:15:04;;;;;;;0.30;0.20;;;;;;;13.13;100.00;99961.44;4982518;28;20565;-49
2022/05/25 00:17:30;;;;;;;0.40;0.20;;;;;;;13.19;99.77;99963.88;4986922;28;20454;-50
2022/05/25 00:20:00;;;;;;;0.40;0.20;;;;;;;13.24;100.00;99954.72;4988071;28;20442;-50
2022/05/25 00:22:42;;;;;;;0.30;0.20;;;;;;;13.02;100.00;99959.25;4986320;28;20453;-50
2022/05/25 00:25:13;;;;;;;0.40;0.20;;;;;;;12.97;100.00;99956.75;4982081;28;20453;-50
2022/05/25 00:27:40;;;;;;;0.40;0.20;;;;;;;12.91;100.00;99959.72;4993216;28;20481;-50
2022/05/25 00:30:07;;;;;;;0.40;0.20;;;;;;;13.04;100.00;99955.56;4988714;28;21007;-50
2022/05/25 00:32:34;;;;;;;0.30;0.20;;;;;;;12.62;100.00;99968.97;4988949;28;20453;-51
2022/05/25 00:35:01;;;;;;;0.40;0.20;;;;;;;12.66;100.00;99969.69;4982601;28;20449;-49
2022/05/25 00:37:27;;;;;;;0.40;0.30;;;;;;;12.54;100.00;99963.06;4981848;28;20967;-50
2022/05/25 00:39:54;;;;;;;0.40;0.20;;;;;;;12.69;100.00;99950.88;4984142;28;20446;-50
2022/05/25 00:42:21;;;;;;;0.30;0.20;;;;;;;12.60;100.00;99959.28;4982165;28;20477;-50
2022/05/25 00:44:47;;;;;;;0.30;0.20;;;;;;;12.58;100.00;99961.13;4974756;28;20869;-49
2022/05/25 00:47:20;;;;;;;2.10;0.77;;;;;;;12.82;100.00;99954.78;4988882;28;20457;-49
2022/05/25 00:49:47;;;;;;;0.40;0.33;;;;;;;12.68;100.00;99960.69;4970903;28;20524;-49
2022/05/25 00:52:15;;;;;;;0.40;0.20;;;;;;;12.64;100.00;99974.22;4981880;28;20821;-50
2022/05/25 00:54:47;;;;;;;0.40;0.20;;;;;;;12.68;100.00;99968.69;4987184;28;20525;-50
2022/05/25 00:57:28;;;;;;;0.40;0.20;;;;;;;12.74;100.00;99970.22;4988757;28;20492;-50
2022/05/25 01:00:10;;;;;;;0.30;0.20;;;;;;;12.91;100.00;99970.38;4985945;28;20461;-50
2022/05/25 01:02:46;;;;;;;0.30;0.20;;;;;;;12.39;100.00;99969.91;4981565;28;20883;-49
2022/05/25 01:05:15;;;;;;;0.30;0.20;;;;;;;12.34;100.00;99971.91;4981915;28;20453;-50
2022/05/25 01:08:00;;;;;;;0.30;0.20;;;;;;;11.88;100.00;99972.84;4987373;28;20490;-49
2022/05/25 01:11:05;;;;;;;0.30;0.20;;;;;;;11.99;100.00;99970.66;4988375;28;20532;-50
2022/05/25 01:13:37;;;;;;;0.40;0.30;;;;;;;11.86;100.00;99970.25;4896869;29;20458;-49
2022/05/25 01:16:04;;;;;;;0.40;0.20;;;;;;;11.68;100.00;99980.72;4974081;28;20488;-50
2022/05/25 01:18:39;;;;;;;0.30;0.20;;;;;;;11.57;100.00;99984.66;4981594;28;20501;-50
2022/05/25 01:21:13;;;;;;;0.40;0.20;;;;;;;11.72;100.00;99982.34;4982308;28;20515;-50
2022/05/25 01:24:02;;;;;;;0.30;0.20;;;;;;;11.89;100.00;99995.03;4970225;28;20975;-50
2022/05/25 01:26:32;;;;;;;0.30;0.20;;;;;;;12.02;100.00;99986.50;4992901;28;20453;-50
2022/05/25 01:29:01;;;;;;;0.30;0.20;;;;;;;11.70;100.00;99987.72;4983991;28;20568;-50
2022/05/25 01:31:36;;;;;;;0.30;0.20;;;;;;;11.60;100.00;99986.34;4987813;28;20454;-50
2022/05/25 01:34:12;;;;;;;0.30;0.20;;;;;;;11.52;100.00;99976.00;4970011;28;20452;-50
2022/05/25 01:36:47;;;;;;;0.40;0.20;;;;;;;11.17;100.00;99987.91;4987443;28;20477;-49
2022/05/25 01:39:20;;;;;;;0.30;0.20;;;;;;;11.45;100.00;99987.78;4979143;28;20462;-50
2022/05/25 01:42:03;;;;;;;0.40;0.20;;;;;;;11.26;100.00;99990.25;4985047;28;20451;-50
2022/05/25 01:44:38;;;;;;;0.30;0.20;;;;;;;11.32;100.00;99991.81;4987824;28;20501;-49
2022/05/25 01:47:06;;;;;;;0.30;0.20;;;;;;;11.26;100.00;99990.25;4987893;28;20444;-50
2022/05/25 01:49:40;;;;;;;0.30;0.20;;;;;;;11.37;100.00;99994.28;4987313;28;20498;-49
2022/05/25 01:52:11;;;;;;;0.30;0.20;;;;;;;11.21;100.00;99988.66;4987730;28;20450;-49
2022/05/25 01:54:41;;;;;;;0.30;0.20;;;;;;;11.16;100.00;99988.84;4983154;28;20472;-50
2022/05/25 01:57:11;;;;;;;0.30;0.20;;;;;;;11.11;100.00;99988.16;4981280;28;20509;-50
2022/05/25 01:59:38;;;;;;;0.30;0.20;;;;;;;11.16;100.00;99991.50;5017559;23;21055;-48
2022/05/25 02:04:56;;;;;;;0.30;0.20;;;;;;;11.10;100.00;99998.81;5013187;28;20838;-49
2022/05/25 02:07:41;;;;;;;0.30;0.20;;;;;;;11.12;100.00;99997.88;5012682;28;20988;-48
2022/05/25 02:10:34;;;;;;;0.30;0.20;;;;;;;11.12;100.00;100000.53;5021568;28;20494;-49
2022/05/25 02:13:23;;;;;;;0.30;0.20;;;;;;;11.01;100.00;100007.13;5026218;28;20448;-47
2022/05/25 02:15:55;;;;;;;0.30;0.20;;;;;;;11.17;100.00;100014.50;5012180;28;20475;-48
2022/05/25 02:18:53;;;;;;;0.30;0.20;;;;;;;10.95;100.00;100011.72;5019595;28;20553;-48
2022/05/25 02:21:40;;;;;;;0.30;0.20;;;;;;;11.02;100.00;100011.53;4968264;28;20457;-48
2022/05/25 02:24:18;;;;;;;0.30;0.20;;;;;;;10.90;100.00;100015.47;5022044;28;20926;-48
2022/05/25 02:26:52;;;;;;;0.30;0.20;;;;;;;10.90;100.00;100021.66;5030114;28;20459;-47
2022/05/25 02:29:24;;;;;;;0.30;0.20;;;;;;;11.01;100.00;100025.75;5019096;28;21035;-48
2022/05/25 02:32:00;;;;;;;0.30;0.20;;;;;;;10.96;100.00;100021.47;5024931;28;20850;-48
2022/05/25 02:34:28;;;;;;;0.30;0.20;;;;;;;10.89;100.00;100022.59;5026137;28;20493;-48
2022/05/25 02:36:56;;;;;;;0.30;0.20;;;;;;;10.80;100.00;100028.22;5022213;28;20456;-49
2022/05/25 02:39:24;;;;;;;0.30;0.20;;;;;;;10.59;100.00;100029.81;5027336;28;20507;-49
2022/05/25 02:41:54;;;;;;;0.30;0.20;;;;;;;10.62;100.00;100027.03;5022359;28;20505;-48
2022/05/25 02:44:21;;;;;;;0.30;0.20;;;;;;;10.53;100.00;100031.78;5019110;28;20514;-48
2022/05/25 02:46:48;;;;;;;0.30;0.20;;;;;;;10.44;100.00;100029.44;5022051;28;20452;-47
2022/05/25 02:49:17;;;;;;;0.30;0.20;;;;;;;10.45;100.00;100029.38;5025823;28;20472;-49
2022/05/25 02:51:45;;;;;;;0.30;0.20;;;;;;;10.42;100.00;100032.16;5023536;28;20452;-48
2022/05/25 02:54:11;;;;;;;0.30;0.20;;;;;;;10.17;100.00;100024.03;5019050;28;21011;-47
2022/05/25 02:56:38;;;;;;;0.30;0.20;;;;;;;10.28;100.00;100024.63;5021220;28;20448;-48
2022/05/25 02:59:05;;;;;;;0.30;0.20;;;;;;;10.23;100.00;100025.66;5025593;28;20481;-49
2022/05/25 03:01:32;;;;;;;0.30;0.20;;;;;;;10.39;100.00;100033.09;5023604;28;20494;-49
2022/05/25 03:03:58;;;;;;;0.30;0.20;;;;;;;10.33;100.00;100030.66;5018510;28;20455;-48
2022/05/25 03:06:25;;;;;;;0.30;0.20;;;;;;;10.08;100.00;100033.16;5020903;28;20865;-49
2022/05/25 03:08:52;;;;;;;0.30;0.20;;;;;;;10.27;100.00;100046.75;5015807;28;20469;-49
2022/05/25 03:11:18;;;;;;;0.30;0.20;;;;;;;10.14;100.00;100040.06;5023981;28;20905;-48
2022/05/25 03:13:48;;;;;;;0.30;0.20;;;;;;;10.05;100.00;100041.22;5018613;28;20447;-47
2022/05/25 03:16:18;;;;;;;0.30;0.20;;;;;;;10.03;100.00;100045.72;5019676;28;20518;-48
2022/05/25 03:18:46;;;;;;;0.30;0.20;;;;;;;10.36;100.00;100045.63;5025202;28;20911;-47
2022/05/25 03:21:13;;;;;;;0.30;0.20;;;;;;;10.18;100.00;100055.00;5012281;28;20444;-47
2022/05/25 03:23:39;;;;;;;0.30;0.20;;;;;;;10.16;100.00;100051.53;5025186;28;20510;-48
2022/05/25 03:26:06;;;;;;;0.30;0.20;;;;;;;10.12;100.00;100049.00;5023162;28;20474;-47
2022/05/25 03:28:33;;;;;;;0.30;0.20;;;;;;;10.10;100.00;100041.94;5025089;28;20495;-49
2022/05/25 03:30:59;;;;;;;0.30;0.20;;;;;;;10.06;100.00;100050.06;5025462;28;20528;-48
2022/05/25 03:33:26;;;;;;;0.30;0.20;;;;;;;9.94;100.00;100045.13;5019151;28;20505;-48
2022/05/25 03:35:52;;;;;;;0.30;0.20;;;;;;;10.15;100.00;100057.75;5018580;28;20507;-48
2022/05/25 03:38:19;;;;;;;0.30;0.20;;;;;;;10.11;100.00;100048.13;5024826;28;20526;-48
2022/05/25 03:40:46;;;;;;;0.30;0.20;;;;;;;10.12;100.00;100057.81;5025229;28;20505;-47
2022/05/25 03:43:16;;;;;;;0.30;0.20;;;;;;;9.98;100.00;100057.38;5019491;28;20456;-49
2022/05/25 03:45:45;;;;;;;0.30;0.20;;;;;;;10.16;100.00;100069.25;5018688;28;20528;-48
2022/05/25 03:48:12;;;;;;;0.30;0.20;;;;;;;10.22;100.00;100069.09;5022957;28;20469;-49
2022/05/25 03:50:41;;;;;;;0.33;0.23;;;;;;;10.04;100.00;100075.78;5024849;28;20524;-48
2022/05/25 03:53:12;;;;;;;0.30;0.20;;;;;;;10.10;100.00;100071.16;5021443;28;20448;-48
2022/05/25 03:55:39;;;;;;;0.30;0.20;;;;;;;9.89;100.00;100070.94;5018134;28;20451;-48
2022/05/25 03:58:06;;;;;;;0.30;0.20;;;;;;;9.89;100.00;100069.16;5021783;28;20526;-48
2022/05/25 04:00:33;;;;;;;0.30;0.20;;;;;;;9.91;100.00;100077.06;5025257;28;21226;-49
2022/05/25 04:03:02;;;;;;;0.30;0.20;;;;;;;10.01;100.00;100082.06;5022719;28;20455;-49
2022/05/25 04:05:31;;;;;;;0.30;0.20;;;;;;;10.18;100.00;100093.97;5018503;28;20486;-48
2022/05/25 04:07:58;;;;;;;0.30;0.20;;;;;;;10.22;100.00;100096.50;5020570;28;20457;-48
2022/05/25 04:10:29;;;;;;;0.30;0.20;;;;;;;10.33;100.00;100096.19;5025170;28;20524;-48
2022/05/25 04:12:56;;;;;;;0.30;0.20;;;;;;;10.29;100.00;100090.13;5023515;28;20454;-50
2022/05/25 04:15:25;;;;;;;0.30;0.20;;;;;;;10.27;100.00;100099.03;5018087;28;21014;-50
2022/05/25 04:17:53;;;;;;;0.30;0.20;;;;;;;10.32;100.00;100100.63;5019168;28;20452;-49
2022/05/25 04:20:21;;;;;;;0.30;0.20;;;;;;;10.52;100.00;100093.81;5024283;28;20984;-49
2022/05/25 04:22:48;;;;;;;0.30;0.20;;;;;;;10.88;100.00;100097.97;5024536;28;20478;-48
2022/05/25 04:25:17;;;;;;;0.30;0.20;;;;;;;11.90;100.00;100100.66;5011780;28;20536;-49
2022/05/25 04:27:45;;;;;;;0.30;0.20;;;;;;;12.10;100.00;100104.31;5010234;28;20518;-47
2022/05/25 04:30:16;;;;;;;0.30;0.20;;;;;;;11.61;100.00;100113.19;5026350;28;20511;-48
2022/05/25 04:32:43;;;;;;;0.30;0.20;;;;;;;11.46;100.00;100111.06;5028195;28;20525;-49
2022/05/25 04:35:11;;;;;;;0.30;0.20;;;;;;;12.15;100.00;100113.00;5023195;28;20451;-49
2022/05/25 04:37:52;;;;;;;0.30;0.20;;;;;;;12.70;98.41;100110.84;5021520;28;20907;-48
2022/05/25 04:40:21;;;;;;;0.30;0.20;;;;;;;13.34;95.01;100113.53;5016342;28;20864;-49
2022/05/25 04:42:49;;;;;;;0.30;0.20;;;;;;;14.06;90.38;100120.19;5021296;28;20452;-49
2022/05/25 04:45:16;;;;;;;0.30;0.20;;;;;;;14.59;89.56;100132.88;5023465;28;20869;-50
2022/05/25 04:47:43;;;;;;;0.30;0.20;;;;;;;15.03;86.66;100128.06;5027867;28;20507;-49
2022/05/25 04:50:19;;;;;;;0.30;0.20;;;;;;;15.38;85.05;100124.47;5026824;28;20548;-50
2022/05/25 04:52:46;;;;;;;0.50;0.50;;;;;;;15.54;84.92;100126.38;5021212;28;20452;-50
2022/05/25 04:57:19;;;;;;;0.40;0.20;;;;;;;15.79;83.57;100134.91;5021472;28;20453;-48
2022/05/25 04:58:01;;;;;;;0.57;0.57;;;;;;;16.07;82.81;100145.03;5013999;28;20471;-48
2022/05/25 05:00:28;;;;;;;0.40;0.20;;;;;;;16.24;82.15;100139.63;5021064;28;20447;-50
2022/05/25 05:02:55;;;;;;;0.40;0.20;;;;;;;16.61;80.89;100139.41;5024366;28;20962;-50
2022/05/25 05:05:21;;;;;;;0.40;0.20;;;;;;;16.72;80.59;100148.66;5017613;28;20514;-50
2022/05/25 05:07:48;;;;;;;0.50;0.43;;;;;;;16.90;79.34;100143.19;5024072;28;20864;-50
2022/05/25 05:10:15;;;;;;;0.40;0.30;;;;;;;16.98;78.94;100143.59;5027593;28;21016;-50
2022/05/25 05:12:42;;;;;;;0.83;0.83;;;;;;;16.82;79.00;100155.19;5024650;28;20451;-51
2022/05/25 05:15:09;;;;;;;0.40;0.20;;;;;;;16.94;79.61;100161.69;5020955;28;20514;-49
2022/05/25 05:17:36;;;;;;;0.40;0.30;;;;;;;16.90;78.66;100159.28;5023331;28;20448;-49
2022/05/25 05:20:04;;;;;;;0.50;0.40;;;;;;;16.88;78.74;100160.25;5027045;28;20961;-50
2022/05/25 05:22:30;;;;;;;0.40;0.20;;;;;;;17.41;77.43;100160.78;5024846;28;20452;-50
2022/05/25 05:24:57;;;;;;;0.40;0.20;;;;;;;17.64;75.28;100160.28;5020392;28;20490;-48
2022/05/25 05:27:24;;;;;;;0.40;0.30;;;;;;;17.88;75.68;100163.34;5031483;28;20462;-48
2022/05/25 05:29:51;;;;;;;0.40;0.20;;;;;;;17.69;75.06;100162.75;5003346;28;20523;-48
2022/05/25 05:32:18;;;;;;;0.40;0.20;;;;;;;18.01;75.03;100172.41;5025315;28;20456;-49
2022/05/25 05:34:45;;;;;;;0.40;0.30;;;;;;;17.87;73.38;100171.50;5020544;28;20451;-48
2022/05/25 05:37:19;;;;;;;0.40;0.30;;;;;;;18.13;74.15;100168.09;5022520;28;20448;-48
2022/05/25 05:39:50;;;;;;;0.40;0.20;;;;;;;17.55;73.61;100170.72;5004538;28;20467;-49
2022/05/25 05:42:19;;;;;;;0.40;0.20;;;;;;;18.12;73.20;100174.44;5026838;28;20979;-47
2022/05/25 05:44:53;;;;;;;0.40;0.20;;;;;;;18.08;73.46;100172.00;5020749;28;20451;-48
2022/05/25 05:47:25;;;;;;;0.40;0.20;;;;;;;18.45;72.63;100173.28;5020507;28;20456;-49
2022/05/25 05:49:52;;;;;;;0.40;0.20;;;;;;;18.66;71.46;100179.19;5024343;28;20523;-48
2022/05/25 05:52:25;;;;;;;0.40;0.20;;;;;;;18.56;72.34;100185.09;5026840;28;20459;-49
2022/05/25 05:54:52;;;;;;;0.47;0.37;;;;;;;19.06;71.17;100181.03;5023253;28;20451;-48
2022/05/25 05:57:18;;;;;;;0.60;0.60;;;;;;;19.19;70.25;100178.41;5020072;28;20462;-49
2022/05/25 05:59:45;;;;;;;0.40;0.23;;;;;;;19.21;69.31;100180.03;5023000;28;20902;-49
2022/05/25 06:02:12;;;;;;;0.40;0.20;;;;;;;18.62;71.85;100191.91;5026877;28;20461;-49
2022/05/25 06:04:39;;;;;;;0.40;0.20;;;;;;;18.94;69.05;100198.00;5023475;28;20447;-49
2022/05/25 06:07:07;;;;;;;0.40;0.23;;;;;;;18.52;70.50;100191.66;5019620;28;20531;-49
2022/05/25 06:09:33;;;;;;;0.40;0.20;;;;;;;18.81;71.80;100199.75;5013376;28;20522;-49
2022/05/25 06:12:00;;;;;;;0.40;0.20;;;;;;;18.56;70.59;100214.72;5026556;28;20993;-48
2022/05/25 06:14:27;;;;;;;0.40;0.30;;;;;;;18.51;70.69;100210.59;5023974;28;20453;-48
2022/05/25 06:19:38;;;;;;;0.50;0.30;;;;;;;18.88;71.14;100218.09;5019418;28;20548;-49
2022/05/25 06:22:14;;;;;;;0.40;0.20;;;;;;;18.90;69.06;100213.47;5021201;28;20467;-49
2022/05/25 06:24:51;;;;;;;0.40;0.30;;;;;;;18.93;68.26;100220.50;5019866;28;20448;-50
2022/05/25 06:27:20;;;;;;;0.40;0.30;;;;;;;18.97;67.40;100210.41;5030909;28;20830;-49
2022/05/25 06:29:49;;;;;;;0.40;0.20;;;;;;;19.34;67.29;100211.56;5019286;28;20478;-48
2022/05/25 06:32:19;;;;;;;0.40;0.20;;;;;;;19.51;65.10;100222.09;5021814;28;20489;-49
2022/05/25 06:34:49;;;;;;;0.50;0.30;;;;;;;19.46;65.79;100230.50;5017984;28;20452;-49
2022/05/25 06:37:18;;;;;;;0.40;0.40;;;;;;;19.34;65.76;100238.53;5020439;28;20511;-49
2022/05/25 06:39:44;;;;;;;0.40;0.20;;;;;;;19.55;65.58;100234.41;5004259;28;21059;-49
2022/05/25 06:42:11;;;;;;;0.40;0.20;;;;;;;19.35;65.07;100238.41;5025366;28;20478;-48
2022/05/25 06:44:38;;;;;;;0.40;0.20;;;;;;;19.35;65.94;100227.63;5018987;28;20898;-48
2022/05/25 06:47:05;;;;;;;0.40;0.20;;;;;;;19.48;66.20;100236.63;5020134;28;20870;-49
2022/05/25 06:49:32;;;;;;;0.40;0.20;;;;;;;19.53;65.93;100231.78;5025685;28;20472;-48
2022/05/25 06:51:58;;;;;;;0.40;0.20;;;;;;;19.31;66.54;100236.00;5008279;28;20495;-49
2022/05/25 06:54:25;;;;;;;2.20;1.13;;;;;;;19.43;66.66;100238.75;5019179;28;20452;-49
2022/05/25 06:56:52;;;;;;;0.40;0.30;;;;;;;19.49;65.68;100240.19;5019110;28;20459;-49
2022/05/25 06:59:25;;;;;;;0.40;0.20;;;;;;;19.34;66.06;100242.06;5019908;28;20570;-49
2022/05/25 07:01:52;;;;;;;0.40;0.20;;;;;;;19.44;65.76;100242.31;5018993;28;20530;-48
2022/05/25 07:04:18;;;;;;;0.40;0.20;;;;;;;20.00;63.74;100245.75;5024677;28;20520;-49
2022/05/25 07:06:45;;;;;;;0.40;0.20;;;;;;;18.94;66.42;100246.47;5025316;28;20444;-48
2022/05/25 07:09:12;;;;;;;0.43;0.27;;;;;;;19.55;65.60;100241.63;4999247;28;20523;-49
2022/05/25 07:11:41;;;;;;;0.40;0.20;;;;;;;20.15;64.48;100252.84;5025292;28;20495;-48
2022/05/25 07:14:08;;;;;;;0.40;0.20;;;;;;;19.62;64.31;100251.94;5020605;28;20447;-49
2022/05/25 07:16:36;;;;;;;0.40;0.20;;;;;;;19.65;65.17;100248.16;5018593;28;20456;-49
2022/05/25 07:19:03;;;;;;;0.40;0.20;;;;;;;19.64;64.78;100258.09;5023349;28;20476;-50
2022/05/25 07:21:33;;;;;;;0.40;0.20;;;;;;;19.41;65.65;100256.00;5015184;28;20445;-50
2022/05/25 07:24:01;;;;;;;0.40;0.20;;;;;;;19.78;64.93;100251.78;5022414;28;20503;-50
2022/05/25 07:26:30;;;;;;;0.40;0.20;;;;;;;20.03;63.25;100256.38;5026110;28;20517;-50
2022/05/25 07:28:56;;;;;;;0.40;0.20;;;;;;;19.95;63.18;100256.00;5021933;28;20901;-51
2022/05/25 07:31:46;;;;;;;0.40;0.20;;;;;;;20.19;63.64;100257.03;5015688;28;20618;-50
2022/05/25 07:34:14;;;;;;;0.40;0.20;;;;;;;20.07;61.95;100252.47;5018702;28;20449;-51
2022/05/25 07:36:43;;;;;;;0.40;0.20;;;;;;;19.89;60.93;100248.34;5018814;28;20447;-49
2022/05/25 07:39:14;;;;;;;0.40;0.20;;;;;;;19.76;62.96;100254.56;5018570;28;20472;-51
2022/05/25 07:41:48;;;;;;;0.40;0.20;;;;;;;20.36;62.56;100251.34;5023905;28;20441;-49
2022/05/25 07:44:19;;;;;;;0.40;0.20;;;;;;;20.11;62.75;100248.59;5025883;28;20871;-50
2022/05/25 07:46:45;;;;;;;0.40;0.20;;;;;;;20.25;61.71;100253.91;5022018;28;20940;-48
2022/05/25 07:49:12;;;;;;;0.40;0.20;;;;;;;20.28;63.63;100259.09;5018201;28;20513;-48
2022/05/25 07:51:39;;;;;;;0.40;0.20;;;;;;;20.41;60.54;100254.59;5021396;28;20542;-48
2022/05/25 07:54:05;;;;;;;0.40;0.20;;;;;;;20.20;61.82;100258.78;5025135;28;20449;-49
2022/05/25 07:56:35;;;;;;;0.40;0.20;;;;;;;20.25;62.03;100264.69;5021776;28;20470;-49
2022/05/25 07:59:08;;;;;;;0.40;0.20;;;;;;;20.44;61.63;100258.06;5038497;23;20556;-52
2022/05/25 08:07:22;;;;;;;0.40;0.20;;;;;;;20.49;61.45;100264.00;5075263;28;20445;-52
2022/05/25 08:09:51;;;;;;;0.40;0.20;;;;;;;20.88;61.10;100260.31;5070179;28;20465;-52
2022/05/25 08:12:19;;;;;;;0.40;0.20;;;;;;;20.94;61.16;100271.53;5061939;28;20493;-52
2022/05/25 08:14:46;;;;;;;0.40;0.30;;;;;;;21.38;59.61;100262.09;5062043;28;20473;-52
2022/05/25 08:17:12;;;;;;;0.50;0.30;;;;;;;21.26;56.27;100257.59;5062061;28;20450;-52
2022/05/25 08:19:39;;;;;;;0.40;0.20;;;;;;;21.08;56.90;100257.03;5061215;28;20475;-52
2022/05/25 08:22:06;;;;;;;1.43;1.33;;;;;;;21.28;57.50;100258.31;5062497;28;20457;-52
2022/05/25 08:24:33;;;;;;;0.40;0.20;;;;;;;21.39;53.34;100263.81;5061456;28;20504;-52
2022/05/25 08:27:04;;;;;;;0.40;0.20;;;;;;;21.91;52.60;100259.88;5072815;28;20454;-52
2022/05/25 08:29:31;;;;;;;0.40;0.30;;;;;;;21.43;53.75;100259.03;5061302;28;20467;-52
2022/05/25 08:31:58;;;;;;;0.40;0.20;;;;;;;21.08;54.06;100264.28;5066152;28;20486;-52
2022/05/25 08:34:26;;;;;;;0.40;0.20;;;;;;;21.13;55.45;100265.69;5068124;28;20528;-52
2022/05/25 08:36:53;;;;;;;0.40;0.20;;;;;;;21.59;54.96;100271.28;5063590;28;20814;-52
2022/05/25 08:39:20;;;;;;;0.40;0.30;;;;;;;21.14;54.38;100259.31;5061451;28;20504;-52
2022/05/25 08:41:50;;;;;;;0.40;0.20;;;;;;;21.10;56.53;100260.47;5065893;28;21013;-52
2022/05/25 08:44:16;;;;;;;0.40;0.20;;;;;;;21.94;55.47;100261.53;5068396;28;20522;-52
2022/05/25 08:46:43;;;;;;;0.40;0.20;;;;;;;21.22;52.56;100269.53;5064357;28;20960;-52
2022/05/25 08:49:14;;;;;;;0.40;0.20;;;;;;;20.88;53.99;100266.59;5061141;28;20488;-52
2022/05/25 08:51:46;;;;;;;0.40;0.20;;;;;;;21.14;54.38;100264.72;5063343;28;20573;-52
2022/05/25 08:54:14;;;;;;;0.40;0.20;;;;;;;21.27;55.41;100256.59;5067770;28;20812;-52
2022/05/25 08:56:56;;;;;;;0.40;0.20;;;;;;;21.74;54.04;100260.31;5066137;28;20868;-52
2022/05/25 08:59:31;;;;;;;0.40;0.20;;;;;;;21.85;53.71;100263.06;5067266;28;20474;-52
2022/05/25 09:02:04;;;;;;;0.40;0.20;;;;;;;21.28;54.29;100255.63;5067702;28;20503;-52
2022/05/25 09:04:46;;;;;;;0.40;0.20;;;;;;;21.65;55.37;100252.88;5063555;28;20465;-52
2022/05/25 09:07:24;;;;;;;0.40;0.20;;;;;;;21.84;54.05;100262.19;5061133;28;20442;-52
2022/05/25 09:09:52;;;;;;;0.40;0.20;;;;;;;22.20;52.68;100265.78;5051469;28;20467;-52
2022/05/25 09:12:27;;;;;;;0.40;0.20;;;;;;;21.67;54.61;100259.06;5060704;28;20499;-52
2022/05/25 09:15:06;;;;;;;0.40;0.20;;;;;;;21.58;53.67;100258.75;5060651;28;20446;-52
2022/05/25 09:17:41;;;;;;;0.40;0.30;;;;;;;21.88;51.39;100260.13;5064910;28;20447;-52
2022/05/25 09:20:09;;;;;;;0.40;0.20;;;;;;;21.74;51.96;100263.00;5066538;28;20458;-52
2022/05/25 09:22:37;;;;;;;0.40;0.20;;;;;;;22.37;51.53;100259.97;5065724;28;21023;-52
2022/05/25 09:25:06;;;;;;;0.40;0.20;;;;;;;22.58;52.38;100262.81;5060292;28;20841;-52
2022/05/25 09:27:46;;;;;;;2.50;2.40;;;;;;;21.85;50.42;100257.66;5071991;28;20462;-52
2022/05/25 09:30:15;;;;;;;0.40;0.20;;;;;;;21.86;51.43;100260.25;5074011;28;20461;-52
2022/05/25 09:33:00;;;;;;;0.40;0.20;;;;;;;21.90;51.48;100260.84;5060074;28;20874;-52
2022/05/25 09:35:32;;;;;;;0.40;0.20;;;;;;;22.17;49.65;100256.06;5063414;28;20447;-52
2022/05/25 09:38:02;;;;;;;0.40;0.20;;;;;;;22.88;48.88;100255.97;5066922;28;20470;-52
2022/05/25 09:40:38;;;;;;;0.40;0.20;;;;;;;22.70;48.12;100252.84;5065670;28;20509;-52
2022/05/25 09:43:09;;;;;;;0.40;0.20;;;;;;;22.39;46.87;100257.13;5060287;28;20455;-52
2022/05/25 09:45:48;;;;;;;0.40;0.20;;;;;;;23.02;47.34;100263.84;5060099;28;20477;-52
2022/05/25 09:48:55;;;;;;;0.40;0.20;;;;;;;23.24;45.68;100253.00;5064807;28;20465;-52
2022/05/25 09:51:33;;;;;;;0.40;0.20;;;;;;;23.30;43.60;100257.94;5048543;28;20489;-52
2022/05/25 09:54:02;;;;;;;0.40;0.20;;;;;;;22.45;46.30;100257.50;5059847;28;20523;-52
2022/05/25 09:56:52;;;;;;;0.40;0.20;;;;;;;22.96;45.50;100250.78;5063628;28;20520;-52
2022/05/25 09:59:35;;;;;;;0.40;0.20;;;;;;;23.42;42.20;100249.75;5066584;28;20991;-52
2022/05/25 10:02:29;;;;;;;0.40;0.20;;;;;;;23.78;42.39;100246.72;5066581;28;20499;-52
2022/05/25 10:05:09;;;;;;;0.40;0.20;;;;;;;23.77;43.17;100253.13;5066007;28;20454;-52
2022/05/25 10:07:39;;;;;;;0.40;0.20;;;;;;;23.76;42.77;100245.97;5065098;28;20960;-52
2022/05/25 10:10:09;;;;;;;0.40;0.20;;;;;;;23.40;44.33;100251.72;5066534;28;20527;-52
2022/05/25 10:12:39;;;;;;;0.40;0.20;;;;;;;23.48;43.69;100254.69;5062767;28;20490;-52
2022/05/25 10:15:09;;;;;;;0.57;0.43;;;;;;;23.41;43.04;100253.44;5059640;28;20503;-52
2022/05/25 10:17:40;;;;;;;0.40;0.20;;;;;;;23.55;42.79;100256.75;5062387;28;20450;-52
2022/05/25 10:20:30;;;;;;;0.40;0.20;;;;;;;23.01;43.98;100256.69;5066616;28;20455;-52
2022/05/25 10:23:07;;;;;;;0.40;0.20;;;;;;;23.11;42.37;100245.97;5066149;28;20454;-52
2022/05/25 10:25:41;;;;;;;0.67;0.67;;;;;;;22.58;41.47;100254.69;5061506;28;20454;-52
2022/05/25 10:28:51;;;;;;;0.40;0.20;;;;;;;23.15;42.45;100247.44;5066437;28;20501;-52
2022/05/25 10:37:08;;;;;;;0.40;0.20;;;;;;;23.63;41.06;100240.72;5053112;28;20797;-52
2022/05/25 10:39:36;;;;;;;0.40;0.30;;;;;;;23.06;41.02;100243.66;5058594;28;20472;-52
2022/05/25 10:42:03;;;;;;;0.40;0.20;;;;;;;23.98;40.18;100238.72;5060530;28;20445;-53
2022/05/25 10:44:40;;;;;;;0.40;0.20;;;;;;;23.91;40.68;100241.97;5065878;28;20457;-53
2022/05/25 10:47:20;;;;;;;0.40;0.20;;;;;;;24.10;41.28;100240.38;5064832;28;20446;-52
2022/05/25 10:49:46;;;;;;;0.40;0.30;;;;;;;24.15;40.20;100239.03;5061139;28;20477;-52
2022/05/25 10:52:33;;;;;;;0.40;0.20;;;;;;;23.60;40.42;100227.41;5057465;28;20482;-52
2022/05/25 10:55:00;;;;;;;0.40;0.20;;;;;;;23.39;40.62;100233.72;5060823;28;20504;-52
2022/05/25 10:57:48;;;;;;;0.40;0.20;;;;;;;23.63;41.36;100221.72;5065444;28;20847;-52
2022/05/25 11:00:44;;;;;;;0.43;0.37;;;;;;;23.94;40.18;100224.53;5065585;28;20482;-52
2022/05/25 11:03:25;;;;;;;0.40;0.20;;;;;;;23.52;40.86;100218.16;5064505;28;20972;-52
2022/05/25 11:06:13;;;;;;;0.40;0.20;;;;;;;23.97;40.33;100237.84;5064340;28;20446;-52
2022/05/25 11:08:40;;;;;;;0.40;0.30;;;;;;;23.68;39.04;100234.91;5056880;28;20516;-52
2022/05/25 11:11:07;;;;;;;0.40;0.20;;;;;;;24.01;39.77;100241.19;5062738;28;20869;-52
2022/05/25 11:14:12;;;;;;;0.40;0.20;;;;;;;24.27;38.93;100228.09;5058800;28;20560;-52
2022/05/25 11:17:30;;;;;;;0.40;0.20;;;;;;;23.83;39.64;100225.44;5058634;28;20446;-52
2022/05/25 11:20:10;;;;;;;0.40;0.20;;;;;;;24.73;38.11;100233.09;5033226;28;20480;-52
2022/05/25 11:22:55;;;;;;;0.40;0.20;;;;;;;23.70;38.67;100232.03;5055590;28;20417;-52
2022/05/25 11:25:33;;;;;;;0.40;0.20;;;;;;;23.17;40.78;100235.50;5064267;28;20478;-52
2022/05/25 11:28:46;;;;;;;0.40;0.20;;;;;;;23.79;40.74;100239.44;5052373;28;20458;-52
2022/05/25 11:31:41;;;;;;;0.40;0.20;;;;;;;23.33;40.21;100241.38;5058301;28;20446;-52
2022/05/25 11:34:20;;;;;;;0.40;0.20;;;;;;;23.06;40.34;100238.22;5058626;28;20809;-52
2022/05/25 11:37:12;;;;;;;0.40;0.20;;;;;;;23.23;41.98;100242.25;5053465;28;20456;-52
2022/05/25 11:39:57;;;;;;;0.40;0.20;;;;;;;23.56;38.78;100238.59;5060326;28;20583;-52
2022/05/25 11:42:54;;;;;;;1.27;1.27;;;;;;;23.94;37.31;100240.84;5062657;28;20443;-52
2022/05/25 11:45:54;;;;;;;0.40;0.20;;;;;;;23.23;39.76;100239.56;5063613;28;20446;-52
2022/05/25 11:49:13;;;;;;;0.40;0.20;;;;;;;23.71;40.63;100234.66;5061844;28;20548;-52
2022/05/25 11:52:11;;;;;;;0.80;0.80;;;;;;;23.34;40.54;100245.81;5064869;28;20450;-52
2022/05/25 11:54:59;;;;;;;0.40;0.20;;;;;;;23.15;41.71;100242.88;5052556;28;20782;-52
2022/05/25 11:57:47;;;;;;;0.40;0.20;;;;;;;22.87;42.50;100246.97;5055613;28;20453;-52
2022/05/25 12:00:17;;;;;;;0.50;0.50;;;;;;;22.96;40.85;100237.25;5063208;28;20827;-52
2022/05/25 12:03:08;;;;;;;0.40;0.20;;;;;;;22.90;40.53;100245.88;5063596;28;20449;-52
2022/05/25 12:06:04;;;;;;;0.40;0.20;;;;;;;22.53;41.36;100247.91;5061804;28;20480;-52